WAT54 KSEZ-KSOW
Flight info
| Callsign | WAT54 |
|---|---|
| Flight time | N/A |
| Altitude | 21000 |
| Route | JESSE |
| Aircraft | B738/M-SDE2E3FGHIRWXY/LB1 |
Departure
| Time | 2026-04-22 13:29 |
|---|---|
| Airport | Sedona Airport (KSEZ) |
Arrival
| Time | N/A |
|---|---|
| Airport | Show Low Regional Airport (KSOW) |
| Time | Latitude | Longitude | Altitude | Speed | Heading |
|---|---|---|---|---|---|
| 2026-04-22 13:02 | 34.84993 | -111.78886 | 4795 ft | 0 kts | 221° |
| 2026-04-22 13:25 | 34.84992 | -111.78886 | 4795 ft | 1 kts | 221° |
| 2026-04-22 13:25 | 34.84976 | -111.78901 | 4794 ft | 4 kts | 211° |
| 2026-04-22 13:26 | 34.84951 | -111.78911 | 4793 ft | 0 kts | 188° |
| 2026-04-22 13:26 | 34.84947 | -111.78911 | 4793 ft | 2 kts | 185° |
| 2026-04-22 13:26 | 34.84904 | -111.78918 | 4789 ft | 9 kts | 204° |
| 2026-04-22 13:27 | 34.84839 | -111.78988 | 4783 ft | 16 kts | 227° |
| 2026-04-22 13:27 | 34.84749 | -111.79102 | 4774 ft | 20 kts | 226° |
| 2026-04-22 13:27 | 34.84651 | -111.79221 | 4768 ft | 20 kts | 226° |
| 2026-04-22 13:27 | 34.84572 | -111.79311 | 4766 ft | 14 kts | 199° |
| 2026-04-22 13:28 | 34.84479 | -111.79328 | 4761 ft | 14 kts | 209° |
| 2026-04-22 13:28 | 34.84401 | -111.79423 | 4748 ft | 18 kts | 233° |
| 2026-04-22 13:28 | 34.84370 | -111.79462 | 4742 ft | 1 kts | 148° |
| 2026-04-22 13:28 | 34.84372 | -111.79453 | 4743 ft | 1 kts | 70° |
| 2026-04-22 13:29 | 34.84412 | -111.79402 | 4748 ft | 34 kts | 50° |
| 2026-04-22 13:29 | 34.84782 | -111.78942 | 4781 ft | 116 kts | 45° |
| 2026-04-22 13:29 | 34.85490 | -111.78061 | 5037 ft | 165 kts | 46° |
| 2026-04-22 13:29 | 34.86379 | -111.76961 | 5614 ft | 199 kts | 46° |
| 2026-04-22 13:30 | 34.87388 | -111.75681 | 6353 ft | 218 kts | 47° |
| 2026-04-22 13:30 | 34.88488 | -111.74337 | 7106 ft | 234 kts | 44° |
| 2026-04-22 13:30 | 34.89777 | -111.72912 | 7337 ft | 267 kts | 43° |
| 2026-04-22 13:30 | 34.91223 | -111.71317 | 7816 ft | 286 kts | 43° |
| 2026-04-22 13:31 | 34.92697 | -111.69681 | 8016 ft | 288 kts | 43° |
| 2026-04-22 13:31 | 34.94172 | -111.68047 | 8008 ft | 292 kts | 43° |
| 2026-04-22 13:31 | 34.95558 | -111.66219 | 8007 ft | 288 kts | 59° |
| 2026-04-22 13:31 | 34.96187 | -111.63976 | 8019 ft | 285 kts | 85° |
| 2026-04-22 13:32 | 34.95935 | -111.61605 | 8027 ft | 283 kts | 110° |
| 2026-04-22 13:32 | 34.95006 | -111.59502 | 8032 ft | 283 kts | 123° |
| 2026-04-22 13:32 | 34.93909 | -111.57511 | 8026 ft | 283 kts | 124° |
| 2026-04-22 13:32 | 34.92779 | -111.55524 | 8160 ft | 288 kts | 125° |
| 2026-04-22 13:33 | 34.91624 | -111.53499 | 8981 ft | 292 kts | 125° |
| 2026-04-22 13:33 | 34.90473 | -111.51469 | 10078 ft | 292 kts | 127° |
| 2026-04-22 13:33 | 34.89308 | -111.49407 | 10847 ft | 303 kts | 129° |
| 2026-04-22 13:33 | 34.88066 | -111.47173 | 11085 ft | 333 kts | 129° |
| 2026-04-22 13:34 | 34.86698 | -111.44758 | 11314 ft | 359 kts | 129° |
| 2026-04-22 13:34 | 34.85254 | -111.42202 | 11903 ft | 371 kts | 130° |
| 2026-04-22 13:34 | 34.83782 | -111.39594 | 12555 ft | 376 kts | 130° |
| 2026-04-22 13:34 | 34.82294 | -111.36990 | 12977 ft | 375 kts | 130° |
| 2026-04-22 13:35 | 34.80779 | -111.34302 | 13003 ft | 396 kts | 129° |
| 2026-04-22 13:35 | 34.79216 | -111.31484 | 13004 ft | 403 kts | 129° |
| 2026-04-22 13:35 | 34.78178 | -111.29606 | 13010 ft | 405 kts | 129° |
| 2026-04-22 13:35 | 34.77645 | -111.28645 | 13012 ft | 407 kts | 129° |
| 2026-04-22 13:36 | 34.71293 | -111.17273 | 13013 ft | 408 kts | 129° |
| 2026-04-22 13:36 | 34.69695 | -111.14427 | 13011 ft | 408 kts | 129° |
| 2026-04-22 13:37 | 34.68089 | -111.11573 | 13011 ft | 409 kts | 129° |
| 2026-04-22 13:37 | 34.67028 | -111.09690 | 13015 ft | 408 kts | 129° |